Decoded Metar for KPSF (PITTSFIELD in MA, USA) (IATA:PSF) | Meteo·Mobile Aviation Weather
aviador You're here:

KPSF Decoded Metar

PITTSFIELD in MA, USA
Report Time2019-07-24 04:54:00
UTC Time2019-07-24 05:56:48
Flight Rules vfr VFR
WindCalm
Visibility9999 m
Phenomena:N/A
Clouds:N/A
Expected CloudBase > 800 ft AGL from Temp-Dew spread
CeilingNone
Temp16°C (ISA +3)
Dew Point14°C (88% RH)
QNH1014 hPa
Density Alt1,739 ft
Elevation1,165 ft
Report Wrong Elevation
Raw Report
KPSF 240454Z AUTO 00000KT 10SM CLR 16/14 A2993 RMK AO2 SLP115
T01610144 402390156=

Extra information for KPSF:More info

Metar Taf Metar & Taf Last 4 Metars F.Rules Stats Wind Profile Meteogram Temp Stats Airport Information Weather charts Add Link Nearby VenuesMetar ALERT Operation Metar Decoded Social comments

AIRNAV info for KPSF